Time,TemperatureF,DewpointF,PressureIn,WindDirection,WindDirectionDegrees,WindSpeedMPH,WindSpeedGustMPH,Humidity,HourlyPrecipIn,Conditions,Clouds,dailyrainin,SoftwareType,DateUTC
2013-05-28 00:01:00,63.0,63.0,30.21,SSW,202,0.0,0.0,100,0.00,,SCT085,0.00,VWS V14.01,2013-05-28 04:01:00,
2013-05-28 00:02:00,63.0,63.0,30.21,SSW,202,0.0,0.0,100,0.00,,SCT085,0.00,VWS V14.01,2013-05-28 04:02:00,
2013-05-28 00:07:00,63.0,63.0,30.21,SSW,202,0.0,0.0,100,0.00,,SCT085,0.00,VWS V14.01,2013-05-28 04:07:00,
2013-05-28 00:12:00,62.6,62.6,30.21,SSW,202,0.0,0.0,100,0.00,,SCT085,0.00,VWS V14.01,2013-05-28 04:12:00,
2013-05-28 00:17:00,62.4,62.4,30.21,SSW,202,0.0,0.0,100,0.00,,SCT085,0.00,VWS V14.01,2013-05-28 04:17:00,
2013-05-28 00:22:00,62.2,62.2,30.21,SSW,202,0.0,0.0,100,0.00,,SCT085,0.00,VWS V14.01,2013-05-28 04:22:00,
2013-05-28 00:27:00,61.9,61.9,30.24,SSW,202,0.0,0.0,100,0.00,,SCT085,0.00,VWS V14.01,2013-05-28 04:27:00,
2013-05-28 00:32:00,61.9,61.9,30.24,SSW,202,0.0,0.0,100,0.00,,SCT085,0.00,VWS V14.01,2013-05-28 04:32:00,
2013-05-28 00:37:00,61.7,61.7,30.24,SSW,202,0.0,0.0,100,0.00,,SCT085,0.00,VWS V14.01,2013-05-28 04:37:00,
2013-05-28 00:42:00,61.5,61.5,30.21,SSW,202,0.0,0.0,100,0.00,,SCT085,0.00,VWS V14.01,2013-05-28 04:42:00,
2013-05-28 00:47:00,61.3,61.3,30.21,SSW,202,0.0,0.0,100,0.00,,SCT085,0.00,VWS V14.01,2013-05-28 04:47:00,
2013-05-28 00:52:00,61.3,61.3,30.21,SSW,202,0.0,0.0,100,0.00,,SCT085,0.00,VWS V14.01,2013-05-28 04:52:00,
2013-05-28 00:57:00,61.2,61.2,30.21,SSW,202,0.0,0.0,100,0.00,,SCT085,0.00,VWS V14.01,2013-05-28 04:57:00,
2013-05-28 01:02:00,61.0,61.0,30.21,SSW,202,0.0,0.0,100,0.00,,SCT085,0.00,VWS V14.01,2013-05-28 05:02:00,
2013-05-28 01:07:00,61.0,61.0,30.21,SSW,202,0.0,0.0,100,0.00,,SCT085,0.00,VWS V14.01,2013-05-28 05:07:00,
2013-05-28 01:12:00,60.8,60.8,30.21,SSW,202,0.0,0.0,100,0.00,,SCT085,0.00,VWS V14.01,2013-05-28 05:12:00,
2013-05-28 01:17:00,60.6,60.6,30.21,SSW,202,0.0,0.0,100,0.00,,SCT085,0.00,VWS V14.01,2013-05-28 05:17:00,
2013-05-28 01:22:00,60.4,60.4,30.21,SSW,202,0.0,0.0,100,0.00,,CLR,0.00,VWS V14.01,2013-05-28 05:22:00,
2013-05-28 01:27:00,60.4,60.4,30.21,SSW,202,0.0,0.0,100,0.00,,CLR,0.00,VWS V14.01,2013-05-28 05:27:00,
2013-05-28 01:32:00,60.1,60.1,30.21,SSW,202,0.0,0.0,100,0.00,,CLR,0.00,VWS V14.01,2013-05-28 05:32:00,
2013-05-28 01:37:00,60.1,60.1,30.21,SSW,202,0.0,0.0,100,0.00,,CLR,0.00,VWS V14.01,2013-05-28 05:37:00,
2013-05-28 01:42:00,60.1,60.1,30.21,SSW,202,0.0,0.0,100,0.00,,CLR,0.00,VWS V14.01,2013-05-28 05:42:00,
2013-05-28 01:47:00,60.1,60.1,30.21,SSW,202,0.0,0.0,100,0.00,,CLR,0.00,VWS V14.01,2013-05-28 05:47:00,
2013-05-28 01:52:00,59.9,59.9,30.21,SSW,202,0.0,0.0,100,0.00,,CLR,0.00,VWS V14.01,2013-05-28 05:52:00,
2013-05-28 01:57:00,60.1,60.1,30.21,SSW,202,0.0,0.0,100,0.00,,CLR,0.00,VWS V14.01,2013-05-28 05:57:00,
2013-05-28 02:02:00,59.7,59.7,30.21,SSW,202,0.0,0.0,100,0.00,,CLR,0.00,VWS V14.01,2013-05-28 06:02:00,
2013-05-28 02:07:00,59.9,59.9,30.21,SSW,202,0.0,0.0,100,0.00,,CLR,0.00,VWS V14.01,2013-05-28 06:07:00,
2013-05-28 02:12:00,59.7,59.7,30.21,SSW,202,0.0,0.0,100,0.00,,CLR,0.00,VWS V14.01,2013-05-28 06:12:00,
2013-05-28 02:17:00,59.7,59.7,30.21,SSW,202,0.0,0.0,100,0.00,,CLR,0.00,VWS V14.01,2013-05-28 06:17:00,
2013-05-28 02:22:00,59.7,59.7,30.21,SSW,202,0.0,0.0,100,0.00,,CLR,0.00,VWS V14.01,2013-05-28 06:22:00,
2013-05-28 02:27:00,59.7,59.7,30.21,SSW,202,0.0,0.0,100,0.00,,CLR,0.00,VWS V14.01,2013-05-28 06:27:00,
2013-05-28 02:32:00,59.5,59.5,30.21,SSW,202,0.0,0.0,100,0.00,,CLR,0.00,VWS V14.01,2013-05-28 06:32:00,
2013-05-28 02:37:00,59.4,59.4,30.21,SSW,202,0.0,0.0,100,0.00,,CLR,0.00,VWS V14.01,2013-05-28 06:37:00,
2013-05-28 02:42:00,59.4,59.4,30.21,SSW,202,0.0,0.0,100,0.00,,CLR,0.00,VWS V14.01,2013-05-28 06:42:00,
2013-05-28 02:47:00,59.2,59.2,30.21,SSW,202,0.0,0.0,100,0.00,,CLR,0.00,VWS V14.01,2013-05-28 06:47:00,
2013-05-28 02:52:00,59.0,59.0,30.21,SSW,202,0.0,0.0,100,0.00,,CLR,0.00,VWS V14.01,2013-05-28 06:52:00,
2013-05-28 02:57:00,58.8,58.8,30.18,SSW,202,0.0,0.0,100,0.00,,CLR,0.00,VWS V14.01,2013-05-28 06:57:00,
2013-05-28 03:02:00,59.0,59.0,30.18,SSW,202,0.0,0.0,100,0.00,,CLR,0.00,VWS V14.01,2013-05-28 07:02:00,
2013-05-28 03:07:00,58.8,58.8,30.18,SSW,202,0.0,0.0,100,0.00,,CLR,0.00,VWS V14.01,2013-05-28 07:07:00,
2013-05-28 03:12:00,59.2,59.2,30.18,SSW,202,0.0,0.0,100,0.00,,CLR,0.00,VWS V14.01,2013-05-28 07:12:00,
2013-05-28 03:17:00,59.2,59.2,30.18,SSW,202,0.0,0.0,100,0.00,,CLR,0.00,VWS V14.01,2013-05-28 07:17:00,
2013-05-28 03:22:00,59.0,59.0,30.18,SSW,202,0.0,0.0,100,0.00,,CLR,0.00,VWS V14.01,2013-05-28 07:22:00,
2013-05-28 03:27:00,58.8,58.8,30.18,SSW,202,0.0,0.0,100,0.00,,CLR,0.00,VWS V14.01,2013-05-28 07:27:00,
2013-05-28 03:32:00,58.6,58.6,30.18,SSW,202,0.0,0.0,100,0.00,,CLR,0.00,VWS V14.01,2013-05-28 07:32:00,
2013-05-28 03:37:00,58.5,58.5,30.18,SSW,202,0.0,0.0,100,0.00,,CLR,0.00,VWS V14.01,2013-05-28 07:37:00,
2013-05-28 03:42:00,58.5,58.5,30.18,SSW,202,0.0,0.0,100,0.00,,CLR,0.00,VWS V14.01,2013-05-28 07:42:00,
2013-05-28 03:47:00,58.3,58.3,30.18,SSW,202,0.0,0.0,100,0.00,,CLR,0.00,VWS V14.01,2013-05-28 07:47:00,
2013-05-28 03:52:00,58.1,58.1,30.18,SSW,202,0.0,0.0,100,0.00,,CLR,0.00,VWS V14.01,2013-05-28 07:52:00,
2013-05-28 03:57:00,58.1,58.1,30.18,SSW,202,0.0,0.0,100,0.00,,CLR,0.00,VWS V14.01,2013-05-28 07:57:00,
2013-05-28 04:02:00,58.1,58.1,30.18,SSW,202,0.0,0.0,100,0.00,,CLR,0.00,VWS V14.01,2013-05-28 08:02:00,
2013-05-28 04:07:00,58.1,58.1,30.18,SSW,202,0.0,0.0,100,0.00,,CLR,0.00,VWS V14.01,2013-05-28 08:07:00,
2013-05-28 04:12:00,57.9,57.9,30.18,SSW,202,0.0,0.0,100,0.00,,CLR,0.00,VWS V14.01,2013-05-28 08:12:00,
2013-05-28 04:17:00,57.7,57.7,30.18,SSW,202,0.0,0.0,100,0.00,,CLR,0.00,VWS V14.01,2013-05-28 08:17:00,
2013-05-28 04:22:00,57.7,57.7,30.18,SSW,202,0.0,0.0,100,0.00,,,0.00,VWS V14.01,2013-05-28 08:22:00,
2013-05-28 04:27:00,57.6,57.6,30.18,SSW,202,0.0,0.0,100,0.00,,,0.00,VWS V14.01,2013-05-28 08:27:00,
2013-05-28 04:32:00,57.6,57.6,30.18,SSW,202,0.0,0.0,100,0.00,,,0.00,VWS V14.01,2013-05-28 08:32:00,
2013-05-28 04:37:00,57.6,57.6,30.18,SSW,202,0.0,0.0,100,0.00,,,0.00,VWS V14.01,2013-05-28 08:37:00,
2013-05-28 04:42:00,57.7,57.7,30.18,SSW,202,0.0,0.0,100,0.00,,,0.00,VWS V14.01,2013-05-28 08:42:00,
2013-05-28 04:47:00,57.7,57.7,30.18,SSW,202,0.0,0.0,100,0.00,,,0.00,VWS V14.01,2013-05-28 08:47:00,
2013-05-28 04:52:00,57.7,57.7,30.18,SSW,202,0.0,0.0,100,0.00,,,0.00,VWS V14.01,2013-05-28 08:52:00,
2013-05-28 04:57:00,57.7,57.7,30.18,SSW,202,0.0,0.0,100,0.00,,,0.00,VWS V14.01,2013-05-28 08:57:00,
2013-05-28 05:02:00,57.9,57.9,30.18,SSW,202,0.0,0.0,100,0.00,,,0.00,VWS V14.01,2013-05-28 09:02:00,
2013-05-28 05:07:00,57.9,57.9,30.18,SSW,202,0.0,0.0,100,0.00,,,0.00,VWS V14.01,2013-05-28 09:07:00,
2013-05-28 05:13:00,57.9,57.9,30.18,SSW,202,0.0,0.0,100,0.00,,,0.00,VWS V14.01,2013-05-28 09:13:00,
2013-05-28 05:18:00,57.9,57.9,30.18,SSW,202,0.0,0.0,100,0.00,,,0.00,VWS V14.01,2013-05-28 09:18:00,
2013-05-28 05:23:00,57.9,57.9,30.18,SSW,202,0.0,0.0,100,0.00,,,0.00,VWS V14.01,2013-05-28 09:23:00,
2013-05-28 05:28:00,58.1,58.1,30.18,SSW,202,0.0,0.0,100,0.00,,,0.00,VWS V14.01,2013-05-28 09:28:00,
2013-05-28 05:33:00,58.3,58.3,30.18,SSW,202,0.0,0.0,100,0.00,,,0.00,VWS V14.01,2013-05-28 09:33:00,
2013-05-28 05:38:00,58.3,58.3,30.18,SSW,202,0.0,0.0,100,0.00,,,0.00,VWS V14.01,2013-05-28 09:38:00,
2013-05-28 05:43:00,58.3,58.3,30.21,SSW,202,0.0,0.0,100,0.00,,CLR,0.00,VWS V14.01,2013-05-28 09:43:00,
2013-05-28 05:48:00,58.3,58.3,30.21,SSW,202,0.0,0.0,100,0.00,,CLR,0.00,VWS V14.01,2013-05-28 09:48:00,
2013-05-28 05:53:00,58.3,58.3,30.21,SSW,202,0.0,0.0,100,0.00,,CLR,0.00,VWS V14.01,2013-05-28 09:53:00,
2013-05-28 05:58:00,58.3,58.3,30.21,SSW,202,0.0,0.0,100,0.00,,CLR,0.00,VWS V14.01,2013-05-28 09:58:00,
2013-05-28 06:03:00,58.3,58.3,30.21,SSW,202,0.0,0.0,100,0.00,,,0.00,VWS V14.01,2013-05-28 10:03:00,
2013-05-28 06:08:00,58.5,58.5,30.21,SSW,202,0.0,0.0,100,0.00,,,0.00,VWS V14.01,2013-05-28 10:08:00,
2013-05-28 06:13:00,58.5,58.5,30.21,SSW,202,0.0,0.0,100,0.00,,,0.00,VWS V14.01,2013-05-28 10:13:00,
2013-05-28 06:18:00,58.5,58.5,30.21,SSW,202,0.0,0.0,100,0.00,,,0.00,VWS V14.01,2013-05-28 10:18:00,
2013-05-28 06:23:00,58.6,58.6,30.21,SSW,202,0.0,0.0,100,0.00,,CLR,0.00,VWS V14.01,2013-05-28 10:23:00,
2013-05-28 06:28:00,58.6,58.6,30.21,SSW,202,0.0,0.0,100,0.00,,CLR,0.00,VWS V14.01,2013-05-28 10:28:00,
2013-05-28 06:33:00,58.6,58.6,30.21,SSW,202,0.0,0.0,100,0.00,,CLR,0.00,VWS V14.01,2013-05-28 10:33:00,
2013-05-28 06:38:00,58.8,58.8,30.21,SSW,202,0.0,0.0,100,0.00,,CLR,0.00,VWS V14.01,2013-05-28 10:38:00,
2013-05-28 06:43:00,58.8,58.8,30.21,SSW,202,0.0,0.0,100,0.00,,CLR,0.00,VWS V14.01,2013-05-28 10:43:00,
2013-05-28 06:48:00,59.0,59.0,30.21,SSW,202,0.0,0.0,100,0.00,,CLR,0.00,VWS V14.01,2013-05-28 10:48:00,
2013-05-28 06:53:00,59.0,59.0,30.21,SSW,202,0.0,0.0,100,0.00,,CLR,0.00,VWS V14.01,2013-05-28 10:53:00,
2013-05-28 06:58:00,59.0,59.0,30.21,SSW,202,0.0,0.0,100,0.00,,CLR,0.00,VWS V14.01,2013-05-28 10:58:00,
2013-05-28 07:03:00,59.4,59.4,30.21,SSW,202,0.0,0.0,100,0.00,,,0.00,VWS V14.01,2013-05-28 11:03:00,
2013-05-28 07:08:00,59.4,59.4,30.21,SSW,202,0.0,0.0,100,0.00,,,0.00,VWS V14.01,2013-05-28 11:08:00,
2013-05-28 07:13:00,59.9,59.9,30.21,SSW,202,0.0,0.0,100,0.00,,,0.00,VWS V14.01,2013-05-28 11:13:00,
2013-05-28 07:18:00,59.9,59.9,30.21,SSW,202,0.0,0.0,100,0.00,,,0.00,VWS V14.01,2013-05-28 11:18:00,
2013-05-28 07:23:00,60.4,60.4,30.21,SSW,202,0.0,0.0,100,0.00,,CLR,0.00,VWS V14.01,2013-05-28 11:23:00,
2013-05-28 07:28:00,60.6,60.6,30.21,SSW,202,0.0,0.0,100,0.00,,CLR,0.00,VWS V14.01,2013-05-28 11:28:00,
2013-05-28 07:33:00,60.8,60.8,30.21,SSW,202,0.0,0.0,100,0.00,,CLR,0.00,VWS V14.01,2013-05-28 11:33:00,
2013-05-28 07:38:00,61.2,61.2,30.21,SSW,202,0.0,0.0,100,0.00,,CLR,0.00,VWS V14.01,2013-05-28 11:38:00,
2013-05-28 07:43:00,61.3,61.3,30.24,SSW,202,0.0,0.0,100,0.00,,CLR,0.00,VWS V14.01,2013-05-28 11:43:00,
2013-05-28 07:48:00,61.5,61.5,30.24,SSW,202,0.0,0.0,100,0.00,,CLR,0.00,VWS V14.01,2013-05-28 11:48:00,
2013-05-28 07:53:00,61.9,61.9,30.24,SSW,202,0.0,0.0,100,0.00,,CLR,0.00,VWS V14.01,2013-05-28 11:53:00,
2013-05-28 07:58:00,62.6,62.6,30.21,SSW,202,0.0,0.0,100,0.00,,CLR,0.00,VWS V14.01,2013-05-28 11:58:00,
2013-05-28 08:03:00,63.0,63.0,30.21,SSW,202,2.2,2.2,100,0.00,,CLR,0.00,VWS V14.01,2013-05-28 12:03:00,
2013-05-28 08:08:00,63.5,63.5,30.21,SSW,202,2.2,2.2,100,0.00,,CLR,0.00,VWS V14.01,2013-05-28 12:08:00,
2013-05-28 08:13:00,64.4,64.4,30.21,SSW,202,0.0,0.0,100,0.00,,CLR,0.00,VWS V14.01,2013-05-28 12:13:00,
2013-05-28 08:18:00,64.8,64.8,30.21,SSW,202,0.0,0.0,100,0.00,,CLR,0.00,VWS V14.01,2013-05-28 12:18:00,
2013-05-28 08:23:00,65.3,65.3,30.21,SSW,202,0.0,0.0,100,0.00,,CLR,0.00,VWS V14.01,2013-05-28 12:23:00,
2013-05-28 08:28:00,65.5,65.5,30.21,SSW,202,0.0,0.0,100,0.00,,CLR,0.00,VWS V14.01,2013-05-28 12:28:00,
2013-05-28 08:33:00,65.5,65.5,30.21,SSW,202,0.0,0.0,100,0.00,,CLR,0.00,VWS V14.01,2013-05-28 12:33:00,
2013-05-28 08:38:00,65.8,65.8,30.21,SSW,202,2.2,2.2,100,0.00,,CLR,0.00,VWS V14.01,2013-05-28 12:38:00,
2013-05-28 08:43:00,66.4,66.4,30.21,SSW,202,0.0,0.0,100,0.00,,CLR,0.00,VWS V14.01,2013-05-28 12:43:00,
2013-05-28 08:48:00,66.9,66.9,30.21,SSW,202,0.0,0.0,100,0.00,,CLR,0.00,VWS V14.01,2013-05-28 12:48:00,
2013-05-28 08:53:00,68.2,68.2,30.21,SSW,202,2.2,2.2,100,0.00,,CLR,0.00,VWS V14.01,2013-05-28 12:53:00,
2013-05-28 08:58:00,68.4,68.4,30.21,SSW,202,2.7,2.7,100,0.00,,CLR,0.00,VWS V14.01,2013-05-28 12:58:00,
2013-05-28 09:03:00,68.4,68.4,30.21,SSW,202,0.0,0.0,100,0.00,,CLR,0.00,VWS V14.01,2013-05-28 13:03:00,
2013-05-28 09:08:00,68.9,68.9,30.21,SSW,202,0.0,2.2,100,0.00,,CLR,0.00,VWS V14.01,2013-05-28 13:08:00,
2013-05-28 09:13:00,69.1,69.1,30.21,SSW,202,0.0,3.1,100,0.00,,CLR,0.00,VWS V14.01,2013-05-28 13:13:00,
2013-05-28 09:18:00,69.6,69.6,30.21,SSW,202,2.2,2.2,100,0.00,,CLR,0.00,VWS V14.01,2013-05-28 13:18:00,
2013-05-28 09:23:00,70.0,70.0,30.21,SSW,202,3.6,3.6,100,0.00,,CLR,0.00,VWS V14.01,2013-05-28 13:23:00,
2013-05-28 09:28:00,70.2,70.2,30.21,SSW,202,0.0,2.7,100,0.00,,CLR,0.00,VWS V14.01,2013-05-28 13:28:00,
2013-05-28 09:33:00,70.7,70.7,30.21,SSW,202,3.1,3.1,100,0.00,,CLR,0.00,VWS V14.01,2013-05-28 13:33:00,
2013-05-28 09:38:00,71.1,71.1,30.21,SSW,202,2.2,3.1,100,0.00,,CLR,0.00,VWS V14.01,2013-05-28 13:38:00,
2013-05-28 09:43:00,71.4,71.4,30.21,SSW,202,2.2,2.2,100,0.00,,CLR,0.00,VWS V14.01,2013-05-28 13:43:00,
2013-05-28 09:48:00,71.8,71.8,30.21,SSW,202,0.0,3.6,100,0.00,,CLR,0.00,VWS V14.01,2013-05-28 13:48:00,
2013-05-28 09:53:00,72.1,72.2,30.21,SSW,202,2.7,2.7,100,0.00,,CLR,0.00,VWS V14.01,2013-05-28 13:53:00,
2013-05-28 09:58:00,72.5,72.5,30.21,SSW,202,3.1,3.1,100,0.00,,CLR,0.00,VWS V14.01,2013-05-28 13:58:00,
2013-05-28 10:03:00,72.9,72.1,30.21,SSW,202,0.0,4.0,98,0.00,,CLR,0.00,VWS V14.01,2013-05-28 14:03:00,
2013-05-28 10:08:00,73.4,72.2,30.21,WNW,292,4.9,4.9,96,0.00,,CLR,0.00,VWS V14.01,2013-05-28 14:08:00,
2013-05-28 10:13:00,73.2,70.6,30.21,WNW,292,3.6,3.6,92,0.00,,CLR,0.00,VWS V14.01,2013-05-28 14:13:00,
2013-05-28 10:18:00,73.4,70.8,30.21,WNW,292,0.0,2.2,92,0.00,,CLR,0.00,VWS V14.01,2013-05-28 14:18:00,
2013-05-28 10:23:00,73.9,71.3,30.21,WNW,292,2.7,2.7,92,0.00,,CLR,0.00,VWS V14.01,2013-05-28 14:23:00,
2013-05-28 10:28:00,74.8,72.2,30.21,WNW,292,0.0,0.0,92,0.00,,CLR,0.00,VWS V14.01,2013-05-28 14:28:00,
2013-05-28 10:33:00,75.7,70.0,30.21,WNW,292,2.7,2.7,82,0.00,,CLR,0.00,VWS V14.01,2013-05-28 14:33:00,
2013-05-28 10:38:00,75.7,68.9,30.21,WNW,292,0.0,0.0,80,0.00,,CLR,0.00,VWS V14.01,2013-05-28 14:38:00,
2013-05-28 10:43:00,76.3,68.4,30.21,WNW,292,2.7,2.7,76,0.00,,CLR,0.00,VWS V14.01,2013-05-28 14:43:00,
2013-05-28 10:48:00,76.5,70.2,30.21,WNW,292,2.2,2.2,81,0.00,,CLR,0.00,VWS V14.01,2013-05-28 14:48:00,
2013-05-28 10:54:00,76.3,69.5,30.21,WNW,292,2.7,2.7,80,0.00,,CLR,0.00,VWS V14.01,2013-05-28 14:54:00,
2013-05-28 10:59:00,76.6,68.1,30.21,WNW,292,0.0,2.7,75,0.00,,CLR,0.00,VWS V14.01,2013-05-28 14:59:00,
2013-05-28 11:04:00,76.8,70.6,30.21,WNW,292,0.0,2.2,81,0.00,,CLR,0.00,VWS V14.01,2013-05-28 15:04:00,
2013-05-28 11:09:00,77.0,69.6,30.21,WNW,292,2.2,2.2,78,0.00,,CLR,0.00,VWS V14.01,2013-05-28 15:09:00,
2013-05-28 11:14:00,76.8,67.7,30.21,WNW,292,0.0,0.0,74,0.00,,CLR,0.00,VWS V14.01,2013-05-28 15:14:00,
2013-05-28 11:19:00,77.2,68.7,30.21,WNW,292,2.2,3.1,75,0.00,,CLR,0.00,VWS V14.01,2013-05-28 15:19:00,
2013-05-28 11:24:00,78.3,72.5,30.21,WNW,292,0.0,0.0,82,0.00,,CLR,0.00,VWS V14.01,2013-05-28 15:24:00,
2013-05-28 11:29:00,77.7,69.2,30.21,WNW,292,0.0,2.7,75,0.00,,CLR,0.00,VWS V14.01,2013-05-28 15:29:00,
2013-05-28 11:34:00,78.4,69.9,30.21,WNW,292,3.1,3.1,75,0.00,,CLR,0.00,VWS V14.01,2013-05-28 15:34:00,
2013-05-28 11:39:00,77.5,71.2,30.21,WNW,292,2.2,2.7,81,0.00,,CLR,0.00,VWS V14.01,2013-05-28 15:39:00,
2013-05-28 11:44:00,77.4,72.2,30.21,WNW,292,2.7,2.7,84,0.00,,CLR,0.00,VWS V14.01,2013-05-28 15:44:00,
2013-05-28 11:49:00,77.4,71.6,30.21,WNW,292,2.2,2.2,82,0.00,,CLR,0.00,VWS V14.01,2013-05-28 15:49:00,
2013-05-28 11:54:00,77.5,71.2,30.21,WNW,292,3.1,3.1,81,0.00,,CLR,0.00,VWS V14.01,2013-05-28 15:54:00,
2013-05-28 11:59:00,78.1,71.2,30.21,WNW,292,0.0,0.0,80,0.00,,CLR,0.00,VWS V14.01,2013-05-28 15:59:00,
2013-05-28 12:04:00,78.4,72.1,30.21,WNW,292,0.0,0.0,81,0.00,,CLR,0.00,VWS V14.01,2013-05-28 16:04:00,
2013-05-28 12:09:00,77.9,71.6,30.21,WNW,292,2.2,2.2,81,0.00,,CLR,0.00,VWS V14.01,2013-05-28 16:09:00,
2013-05-28 12:14:00,78.6,72.8,30.21,WNW,292,4.0,4.0,82,0.00,,CLR,0.00,VWS V14.01,2013-05-28 16:14:00,
2013-05-28 12:19:00,79.7,71.7,30.21,WNW,292,2.2,2.7,76,0.00,,CLR,0.00,VWS V14.01,2013-05-28 16:19:00,
2013-05-28 12:24:00,80.1,70.8,30.21,WNW,292,4.0,4.0,74,0.00,,CLR,0.00,VWS V14.01,2013-05-28 16:24:00,
2013-05-28 12:29:00,81.0,69.8,30.21,WNW,292,0.0,3.6,69,0.00,,CLR,0.00,VWS V14.01,2013-05-28 16:29:00,
2013-05-28 12:34:00,81.1,69.4,30.21,SW,225,2.7,4.9,68,0.00,,CLR,0.00,VWS V14.01,2013-05-28 16:34:00,
2013-05-28 12:39:00,81.3,70.2,30.21,SSW,202,2.7,3.1,69,0.00,,CLR,0.00,VWS V14.01,2013-05-28 16:39:00,
2013-05-28 12:44:00,81.1,70.0,30.21,South,180,3.1,3.1,69,0.00,,CLR,0.00,VWS V14.01,2013-05-28 16:44:00,
2013-05-28 12:49:00,82.6,70.7,30.21,South,180,2.7,2.7,68,0.00,,CLR,0.00,VWS V14.01,2013-05-28 16:49:00,
2013-05-28 12:54:00,82.4,68.6,30.21,South,180,4.0,4.0,63,0.00,,CLR,0.00,VWS V14.01,2013-05-28 16:54:00,
2013-05-28 12:59:00,83.1,69.9,30.21,South,180,3.1,4.9,64,0.00,,CLR,0.00,VWS V14.01,2013-05-28 16:59:00,
2013-05-28 13:04:00,82.2,69.1,30.21,SSE,158,3.6,4.0,64,0.00,,CLR,0.00,VWS V14.01,2013-05-28 17:04:00,
2013-05-28 13:09:00,81.9,69.4,30.21,SSE,158,2.2,4.0,66,0.00,,CLR,0.00,VWS V14.01,2013-05-28 17:09:00,
2013-05-28 13:14:00,82.2,69.1,30.21,SSW,202,4.0,4.0,64,0.00,,CLR,0.00,VWS V14.01,2013-05-28 17:14:00,
2013-05-28 13:19:00,81.5,69.7,30.21,SSW,202,0.0,0.0,68,0.00,,CLR,0.00,VWS V14.01,2013-05-28 17:19:00,
2013-05-28 13:24:00,81.9,68.0,30.21,SSE,158,2.7,2.7,63,0.00,,CLR,0.00,VWS V14.01,2013-05-28 17:24:00,
2013-05-28 13:29:00,82.2,69.1,30.18,SSW,202,3.1,4.5,64,0.00,,CLR,0.00,VWS V14.01,2013-05-28 17:29:00,
2013-05-28 13:34:00,81.7,67.9,30.18,South,180,3.6,4.0,63,0.00,,CLR,0.00,VWS V14.01,2013-05-28 17:34:00,
2013-05-28 13:39:00,82.4,68.6,30.18,South,180,2.2,3.6,63,0.00,,CLR,0.00,VWS V14.01,2013-05-28 17:39:00,
2013-05-28 13:44:00,82.4,68.6,30.18,SSE,158,2.2,7.2,63,0.00,,CLR,0.00,VWS V14.01,2013-05-28 17:44:00,
2013-05-28 13:49:00,83.7,70.4,30.18,South,180,3.6,3.6,64,0.00,,CLR,0.00,VWS V14.01,2013-05-28 17:49:00,
2013-05-28 13:54:00,83.8,69.9,30.18,South,180,4.0,4.0,63,0.00,,CLR,0.00,VWS V14.01,2013-05-28 17:54:00,
2013-05-28 13:59:00,83.7,66.8,30.18,SSE,158,4.0,5.4,57,0.00,,CLR,0.00,VWS V14.01,2013-05-28 17:59:00,
2013-05-28 14:04:00,83.7,68.3,30.18,South,180,4.9,4.9,60,0.00,,CLR,0.00,VWS V14.01,2013-05-28 18:04:00,
2013-05-28 14:09:00,82.6,68.7,30.18,SW,225,2.7,4.0,63,0.00,,CLR,0.00,VWS V14.01,2013-05-28 18:09:00,
2013-05-28 14:14:00,82.9,71.1,30.18,SSE,158,0.0,3.1,68,0.00,,CLR,0.00,VWS V14.01,2013-05-28 18:14:00,
2013-05-28 14:19:00,82.2,68.4,30.18,SSW,202,3.1,4.0,63,0.00,,CLR,0.00,VWS V14.01,2013-05-28 18:19:00,
2013-05-28 14:24:00,81.9,70.7,30.18,South,180,3.6,5.4,69,0.00,,SCT047,0.00,VWS V14.01,2013-05-28 18:24:00,
2013-05-28 14:29:00,82.2,70.4,30.18,SSW,202,2.7,3.6,68,0.00,,SCT047,0.00,VWS V14.01,2013-05-28 18:29:00,
2013-05-28 14:34:00,82.6,68.7,30.18,SW,225,3.1,3.1,63,0.00,,SCT047,0.00,VWS V14.01,2013-05-28 18:34:00,
2013-05-28 14:39:00,83.3,70.1,30.18,SW,225,5.8,5.8,64,0.00,,SCT047,0.00,VWS V14.01,2013-05-28 18:39:00,
2013-05-28 14:45:00,83.1,68.5,30.18,SSE,158,0.0,4.0,62,0.00,,BKN060,0.00,VWS V14.01,2013-05-28 18:45:00,
2013-05-28 14:50:00,83.5,68.2,30.18,SSE,158,2.2,5.8,60,0.00,,BKN060,0.00,VWS V14.01,2013-05-28 18:50:00,
2013-05-28 14:55:00,83.7,66.1,30.18,SSW,202,3.6,7.2,56,0.00,,BKN060,0.00,VWS V14.01,2013-05-28 18:55:00,
2013-05-28 15:00:00,83.7,68.3,30.15,SE,135,2.2,4.9,60,0.00,,BKN060,0.00,VWS V14.01,2013-05-28 19:00:00,
2013-05-28 15:05:00,83.8,70.6,30.15,WSW,248,2.7,2.7,64,0.00,,BKN060,0.00,VWS V14.01,2013-05-28 19:05:00,
2013-05-28 15:10:00,82.4,67.8,30.15,South,180,2.7,4.0,62,0.00,,BKN060,0.00,VWS V14.01,2013-05-28 19:10:00,
2013-05-28 15:15:00,82.4,68.6,30.15,South,180,3.1,5.8,63,0.00,,BKN060,0.00,VWS V14.01,2013-05-28 19:15:00,
2013-05-28 15:20:00,82.4,68.6,30.15,South,180,0.0,3.1,63,0.00,,BKN060,0.00,VWS V14.01,2013-05-28 19:20:00,
2013-05-28 15:25:00,81.5,68.4,30.15,SSE,158,4.0,5.8,64,0.00,,SCT060,0.00,VWS V14.01,2013-05-28 19:25:00,
2013-05-28 15:30:00,81.3,67.5,30.15,South,180,2.2,5.4,63,0.00,,SCT060,0.00,VWS V14.01,2013-05-28 19:30:00,
2013-05-28 15:35:00,81.5,68.4,30.15,SSE,158,3.6,3.6,64,0.00,,SCT060,0.00,VWS V14.01,2013-05-28 19:35:00,
2013-05-28 15:40:00,81.3,68.9,30.15,SSW,202,4.0,4.9,66,0.00,,SCT060,0.00,VWS V14.01,2013-05-28 19:40:00,
2013-05-28 15:45:00,81.1,66.7,30.15,SSW,202,2.7,5.4,62,0.00,,BKN075,0.00,VWS V14.01,2013-05-28 19:45:00,
2013-05-28 15:50:00,80.6,67.5,30.15,SE,135,3.1,5.8,64,0.00,,BKN075,0.00,VWS V14.01,2013-05-28 19:50:00,
2013-05-28 15:55:00,81.1,67.4,30.15,ESE,112,4.0,4.0,63,0.00,,BKN075,0.00,VWS V14.01,2013-05-28 19:55:00,
2013-05-28 16:00:00,81.0,67.9,30.15,ESE,112,3.1,3.1,64,0.00,,BKN075,0.00,VWS V14.01,2013-05-28 20:00:00,
2013-05-28 16:05:00,81.1,65.9,30.15,SSW,202,4.0,5.8,60,0.00,,SCT075,0.00,VWS V14.01,2013-05-28 20:05:00,
2013-05-28 16:10:00,80.8,67.0,30.15,ESE,112,4.9,4.9,63,0.00,,SCT075,0.00,VWS V14.01,2013-05-28 20:10:00,
2013-05-28 16:15:00,81.0,67.9,30.15,SSW,202,4.0,4.5,64,0.00,,SCT075,0.00,VWS V14.01,2013-05-28 20:15:00,
2013-05-28 16:20:00,81.1,67.4,30.15,South,180,4.0,5.4,63,0.00,,SCT055,0.00,VWS V14.01,2013-05-28 20:20:00,
2013-05-28 16:25:00,80.6,66.2,30.15,SSE,158,3.1,5.4,62,0.00,,SCT055,0.00,VWS V14.01,2013-05-28 20:25:00,
2013-05-28 16:30:00,80.8,67.0,30.15,WSW,248,4.9,4.9,63,0.00,,SCT055,0.00,VWS V14.01,2013-05-28 20:30:00,
2013-05-28 16:35:00,80.2,67.2,30.15,SSW,202,2.7,3.1,64,0.00,,SCT055,0.00,VWS V14.01,2013-05-28 20:35:00,
2013-05-28 16:40:00,79.9,66.8,30.15,SSW,202,3.1,4.9,64,0.00,,SCT055,0.00,VWS V14.01,2013-05-28 20:40:00,
2013-05-28 16:45:00,80.8,67.7,30.15,SSW,202,4.0,4.0,64,0.00,,CLR,0.00,VWS V14.01,2013-05-28 20:45:00,
2013-05-28 16:50:00,80.8,64.9,30.15,SSW,202,3.6,5.4,58,0.00,,CLR,0.00,VWS V14.01,2013-05-28 20:50:00,
2013-05-28 16:55:00,81.0,67.2,30.15,SSW,202,4.0,4.5,63,0.00,,CLR,0.00,VWS V14.01,2013-05-28 20:55:00,
2013-05-28 17:00:00,80.8,65.6,30.15,SSE,158,3.1,3.1,60,0.00,,CLR,0.00,VWS V14.01,2013-05-28 21:00:00,
2013-05-28 17:05:00,80.2,66.5,30.15,SSE,158,2.7,2.7,63,0.00,,BKN070,0.00,VWS V14.01,2013-05-28 21:05:00,
2013-05-28 17:10:00,80.2,67.2,30.15,SSW,202,2.7,6.3,64,0.00,,BKN070,0.00,VWS V14.01,2013-05-28 21:10:00,
2013-05-28 17:15:00,80.2,66.5,30.15,SSW,202,7.6,7.6,63,0.00,,BKN070,0.00,VWS V14.01,2013-05-28 21:15:00,
2013-05-28 17:20:00,80.8,67.0,30.15,South,180,3.6,5.8,63,0.00,,SCT060,0.00,VWS V14.01,2013-05-28 21:20:00,
2013-05-28 17:25:00,81.1,65.9,30.15,South,180,2.7,3.6,60,0.00,,SCT060,0.00,VWS V14.01,2013-05-28 21:25:00,
2013-05-28 17:30:00,81.0,65.1,30.15,SSW,202,2.7,3.6,58,0.00,,SCT060,0.00,VWS V14.01,2013-05-28 21:30:00,
2013-05-28 17:35:00,80.8,64.1,30.15,South,180,3.6,5.4,57,0.00,,SCT060,0.00,VWS V14.01,2013-05-28 21:35:00,
2013-05-28 17:40:00,81.0,67.2,30.15,ESE,112,5.4,5.4,63,0.00,,BKN065,0.00,VWS V14.01,2013-05-28 21:40:00,
2013-05-28 17:45:00,80.8,66.3,30.15,SSW,202,3.1,6.3,62,0.00,,BKN065,0.00,VWS V14.01,2013-05-28 21:45:00,
2013-05-28 17:50:00,80.6,65.4,30.15,South,180,2.7,2.7,60,0.00,,BKN065,0.00,VWS V14.01,2013-05-28 21:50:00,
2013-05-28 17:55:00,80.8,65.6,30.15,ESE,112,3.1,3.6,60,0.00,,BKN065,0.00,VWS V14.01,2013-05-28 21:55:00,
2013-05-28 18:00:00,80.6,65.4,30.15,SSE,158,3.6,4.9,60,0.00,,BKN065,0.00,VWS V14.01,2013-05-28 22:00:00,
2013-05-28 18:05:00,80.2,66.5,30.15,SSW,202,0.0,3.6,63,0.00,,SCT065,0.00,VWS V14.01,2013-05-28 22:05:00,
2013-05-28 18:10:00,80.1,66.3,30.15,SSE,158,7.2,7.2,63,0.00,,SCT065,0.00,VWS V14.01,2013-05-28 22:10:00,
2013-05-28 18:15:00,79.9,66.2,30.15,SSW,202,3.6,5.8,63,0.00,,SCT065,0.00,VWS V14.01,2013-05-28 22:15:00,
2013-05-28 18:20:00,79.7,65.3,30.15,South,180,4.9,4.9,62,0.00,,CLR,0.00,VWS V14.01,2013-05-28 22:20:00,
2013-05-28 18:25:00,79.7,66.7,30.15,SSE,158,2.2,2.7,64,0.00,,CLR,0.00,VWS V14.01,2013-05-28 22:25:00,
2013-05-28 18:30:00,79.7,66.0,30.15,SSE,158,3.1,3.1,63,0.00,,CLR,0.00,VWS V14.01,2013-05-28 22:30:00,
2013-05-28 18:35:00,79.5,65.1,30.15,SE,135,3.1,3.1,62,0.00,,CLR,0.00,VWS V14.01,2013-05-28 22:35:00,
2013-05-28 18:40:00,79.3,65.7,30.15,SSW,202,4.0,5.4,63,0.00,,CLR,0.00,VWS V14.01,2013-05-28 22:40:00,
2013-05-28 18:45:00,79.3,65.0,30.15,SSE,158,2.2,3.1,62,0.00,,CLR,0.00,VWS V14.01,2013-05-28 22:45:00,
2013-05-28 18:50:00,79.3,65.7,30.15,South,180,2.7,2.7,63,0.00,,CLR,0.00,VWS V14.01,2013-05-28 22:50:00,
2013-05-28 18:55:00,78.8,65.8,30.15,SSE,158,4.9,5.4,64,0.00,,CLR,0.00,VWS V14.01,2013-05-28 22:55:00,
2013-05-28 19:00:00,78.1,65.2,30.15,SSE,158,6.3,6.3,64,0.00,,CLR,0.00,VWS V14.01,2013-05-28 23:00:00,
2013-05-28 19:06:00,77.7,65.5,30.15,South,180,3.6,3.6,66,0.00,,CLR,0.00,VWS V14.01,2013-05-28 23:06:00,
2013-05-28 19:11:00,77.5,65.3,30.15,South,180,3.1,3.1,66,0.00,,CLR,0.00,VWS V14.01,2013-05-28 23:11:00,
2013-05-28 19:16:00,77.4,65.8,30.15,South,180,2.2,5.8,68,0.00,,CLR,0.00,VWS V14.01,2013-05-28 23:16:00,
2013-05-28 19:21:00,77.4,65.8,30.15,SSW,202,2.2,3.1,68,0.00,,CLR,0.00,VWS V14.01,2013-05-28 23:21:00,
2013-05-28 19:26:00,77.4,65.8,30.15,SSW,202,0.0,3.6,68,0.00,,CLR,0.00,VWS V14.01,2013-05-28 23:26:00,
2013-05-28 19:31:00,77.0,66.1,30.15,WSW,248,4.0,4.0,69,0.00,,CLR,0.00,VWS V14.01,2013-05-28 23:31:00,
2013-05-28 19:36:00,76.8,65.9,30.15,SSE,158,2.2,2.7,69,0.00,,CLR,0.00,VWS V14.01,2013-05-28 23:36:00,
2013-05-28 19:41:00,76.6,66.3,30.15,SSW,202,3.6,3.6,70,0.00,,CLR,0.00,VWS V14.01,2013-05-28 23:41:00,
2013-05-28 19:46:00,76.5,66.2,30.15,SSW,202,0.0,3.1,70,0.00,,CLR,0.00,VWS V14.01,2013-05-28 23:46:00,
2013-05-28 19:51:00,76.1,66.4,30.15,SSW,202,0.0,0.0,72,0.00,,CLR,0.00,VWS V14.01,2013-05-28 23:51:00,
2013-05-28 19:56:00,75.9,66.8,30.15,SSW,202,0.0,2.2,74,0.00,,CLR,0.00,VWS V14.01,2013-05-28 23:56:00,
2013-05-28 20:01:00,75.7,67.3,30.15,SSW,202,0.0,0.0,75,0.00,,CLR,0.00,VWS V14.01,2013-05-29 00:01:00,
2013-05-28 20:06:00,75.4,67.5,30.15,SSW,202,0.0,0.0,76,0.00,,CLR,0.00,VWS V14.01,2013-05-29 00:06:00,
2013-05-28 20:11:00,75.2,67.9,30.15,SSW,202,0.0,0.0,78,0.00,,CLR,0.00,VWS V14.01,2013-05-29 00:11:00,
2013-05-28 20:16:00,74.8,68.1,30.15,SSW,202,0.0,0.0,80,0.00,,CLR,0.00,VWS V14.01,2013-05-29 00:16:00,
2013-05-28 20:21:00,74.5,68.3,30.15,SSE,158,3.1,3.1,81,0.00,,CLR,0.00,VWS V14.01,2013-05-29 00:21:00,
2013-05-28 20:26:00,74.1,68.5,30.15,SSE,158,0.0,0.0,82,0.00,,CLR,0.00,VWS V14.01,2013-05-29 00:26:00,
2013-05-28 20:31:00,73.8,68.6,30.15,SSW,202,2.7,2.7,84,0.00,,CLR,0.00,VWS V14.01,2013-05-29 00:31:00,
2013-05-28 20:36:00,73.4,68.8,30.15,SSW,202,0.0,0.0,86,0.00,,CLR,0.00,VWS V14.01,2013-05-29 00:36:00,
2013-05-28 20:41:00,73.0,68.9,30.15,SSW,202,0.0,2.2,87,0.00,,CLR,0.00,VWS V14.01,2013-05-29 00:41:00,
2013-05-28 20:46:00,72.9,69.3,30.15,SSW,202,0.0,0.0,88,0.00,,CLR,0.00,VWS V14.01,2013-05-29 00:46:00,
2013-05-28 20:51:00,72.3,69.2,30.15,SSW,202,0.0,0.0,90,0.00,,CLR,0.00,VWS V14.01,2013-05-29 00:51:00,
2013-05-28 20:56:00,72.0,69.8,30.15,SSW,202,0.0,0.0,93,0.00,,CLR,0.00,VWS V14.01,2013-05-29 00:56:00,
2013-05-28 21:01:00,71.6,69.5,30.15,SSW,202,0.0,0.0,93,0.00,,CLR,0.00,VWS V14.01,2013-05-29 01:01:00,
2013-05-28 21:06:00,70.9,70.1,30.15,SSW,202,0.0,0.0,98,0.00,,CLR,0.00,VWS V14.01,2013-05-29 01:06:00,
2013-05-28 21:11:00,70.5,70.2,30.15,SSW,202,0.0,0.0,99,0.00,,CLR,0.00,VWS V14.01,2013-05-29 01:11:00,
2013-05-28 21:16:00,70.2,70.2,30.15,SSW,202,0.0,0.0,100,0.00,,CLR,0.00,VWS V14.01,2013-05-29 01:16:00,
2013-05-28 21:21:00,69.8,69.8,30.15,SSW,202,0.0,0.0,100,0.00,,CLR,0.00,VWS V14.01,2013-05-29 01:21:00,
2013-05-28 21:26:00,69.6,69.6,30.15,SSW,202,0.0,0.0,100,0.00,,CLR,0.00,VWS V14.01,2013-05-29 01:26:00,
2013-05-28 21:31:00,69.4,69.4,30.15,SSW,202,0.0,0.0,100,0.00,,CLR,0.00,VWS V14.01,2013-05-29 01:31:00,
2013-05-28 21:36:00,69.3,69.3,30.15,SSW,202,0.0,0.0,100,0.00,,CLR,0.00,VWS V14.01,2013-05-29 01:36:00,
2013-05-28 21:41:00,69.1,69.1,30.15,SSW,202,0.0,0.0,100,0.00,,CLR,0.00,VWS V14.01,2013-05-29 01:41:00,
2013-05-28 21:46:00,68.9,68.9,30.15,SSW,202,0.0,0.0,100,0.00,,CLR,0.00,VWS V14.01,2013-05-29 01:46:00,
2013-05-28 21:52:00,68.7,68.7,30.15,SSW,202,0.0,0.0,100,0.00,,CLR,0.00,VWS V14.01,2013-05-29 01:52:00,
2013-05-28 21:57:00,68.5,68.5,30.15,SSW,202,0.0,0.0,100,0.00,,CLR,0.00,VWS V14.01,2013-05-29 01:57:00,
2013-05-28 22:02:00,68.2,68.2,30.15,SSW,202,0.0,0.0,100,0.00,,CLR,0.00,VWS V14.01,2013-05-29 02:02:00,
2013-05-28 22:07:00,68.0,68.0,30.15,SSW,202,0.0,0.0,100,0.00,,CLR,0.00,VWS V14.01,2013-05-29 02:07:00,
2013-05-28 22:12:00,67.6,67.6,30.15,SSW,202,0.0,0.0,100,0.00,,CLR,0.00,VWS V14.01,2013-05-29 02:12:00,
2013-05-28 22:17:00,67.3,67.3,30.15,SSW,202,0.0,0.0,100,0.00,,CLR,0.00,VWS V14.01,2013-05-29 02:17:00,
2013-05-28 22:22:00,67.1,67.1,30.15,SSW,202,0.0,0.0,100,0.00,,CLR,0.00,VWS V14.01,2013-05-29 02:22:00,
2013-05-28 22:27:00,66.7,66.7,30.15,SSW,202,0.0,0.0,100,0.00,,CLR,0.00,VWS V14.01,2013-05-29 02:27:00,
2013-05-28 22:32:00,66.6,66.6,30.15,SSW,202,0.0,0.0,100,0.00,,CLR,0.00,VWS V14.01,2013-05-29 02:32:00,
2013-05-28 22:37:00,66.4,66.4,30.15,SSW,202,0.0,0.0,100,0.00,,CLR,0.00,VWS V14.01,2013-05-29 02:37:00,
2013-05-28 22:42:00,66.4,66.4,30.15,SSW,202,0.0,0.0,100,0.00,,CLR,0.00,VWS V14.01,2013-05-29 02:42:00,
2013-05-28 22:47:00,66.0,66.0,30.18,SSW,202,0.0,0.0,100,0.00,,CLR,0.00,VWS V14.01,2013-05-29 02:47:00,
2013-05-28 22:52:00,66.0,66.0,30.18,SSW,202,0.0,0.0,100,0.00,,CLR,0.00,VWS V14.01,2013-05-29 02:52:00,
2013-05-28 22:57:00,65.7,65.7,30.18,SSW,202,0.0,0.0,100,0.00,,CLR,0.00,VWS V14.01,2013-05-29 02:57:00,
2013-05-28 23:02:00,65.5,65.5,30.18,SSW,202,0.0,0.0,100,0.00,,CLR,0.00,VWS V14.01,2013-05-29 03:02:00,
2013-05-28 23:07:00,65.3,65.3,30.18,SSW,202,0.0,0.0,100,0.00,,CLR,0.00,VWS V14.01,2013-05-29 03:07:00,
2013-05-28 23:12:00,65.1,65.1,30.18,SSW,202,0.0,0.0,100,0.00,,CLR,0.00,VWS V14.01,2013-05-29 03:12:00,
2013-05-28 23:17:00,65.1,65.1,30.18,SSW,202,0.0,0.0,100,0.00,,CLR,0.00,VWS V14.01,2013-05-29 03:17:00,
2013-05-28 23:22:00,65.1,65.1,30.18,SSW,202,0.0,0.0,100,0.00,,CLR,0.00,VWS V14.01,2013-05-29 03:22:00,
2013-05-28 23:27:00,65.1,65.1,30.18,SSW,202,0.0,0.0,100,0.00,,CLR,0.00,VWS V14.01,2013-05-29 03:27:00,
2013-05-28 23:32:00,65.3,65.3,30.18,SSW,202,0.0,0.0,100,0.00,,CLR,0.00,VWS V14.01,2013-05-29 03:32:00,
2013-05-28 23:37:00,65.3,65.3,30.18,SSW,202,0.0,0.0,100,0.00,,CLR,0.00,VWS V14.01,2013-05-29 03:37:00,
2013-05-28 23:42:00,65.3,65.3,30.18,SSW,202,0.0,0.0,100,0.00,,CLR,0.00,VWS V14.01,2013-05-29 03:42:00,
2013-05-28 23:47:00,65.1,65.1,30.18,SSW,202,0.0,0.0,100,0.00,,CLR,0.00,VWS V14.01,2013-05-29 03:47:00,
2013-05-28 23:52:00,65.1,65.1,30.18,SSW,202,0.0,0.0,100,0.00,,CLR,0.00,VWS V14.01,2013-05-29 03:52:00,
2013-05-28 23:57:00,65.1,65.1,30.18,SSW,202,0.0,0.0,100,0.00,,CLR,0.00,VWS V14.01,2013-05-29 03:57:00,